createdAt,value
2022-10-05T00:01:01.207Z,101470.16
2022-10-05T00:06:03.391Z,101472.94
2022-10-05T00:11:08.842Z,101468.03
2022-10-05T00:16:10.517Z,101462.03
2022-10-05T00:21:19.531Z,101462.44
2022-10-05T00:26:26.819Z,101462.63
2022-10-05T00:31:32.903Z,101461.78
2022-10-05T00:36:34.611Z,101461.97
2022-10-05T00:42:04.851Z,101439.78
2022-10-05T00:47:22.129Z,101422.72
2022-10-05T00:52:45.162Z,101419.94
2022-10-05T00:58:24.460Z,101408.59
2022-10-05T01:03:35.327Z,101399.16
2022-10-05T01:09:12.249Z,101404.31
2022-10-05T01:14:13.825Z,101389.38
2022-10-05T01:19:37.260Z,101367.56
2022-10-05T01:24:55.158Z,101376.09
2022-10-05T01:30:14.222Z,101356.22
2022-10-05T01:35:29.836Z,101348.56
2022-10-05T01:40:34.842Z,101348.34
2022-10-05T01:46:03.631Z,101335.94
2022-10-05T01:51:17.432Z,101334.22
2022-10-05T01:56:38.124Z,101310.53
2022-10-05T02:01:57.669Z,101318.25
2022-10-05T02:07:06.963Z,101315.00
2022-10-05T02:12:15.610Z,101331.25
2022-10-05T02:17:22.039Z,101319.69
2022-10-05T02:22:32.826Z,101323.06
2022-10-05T02:27:54.968Z,101328.63
2022-10-05T02:33:02.667Z,101321.81
2022-10-05T02:38:13.667Z,101323.94
2022-10-05T02:43:21.281Z,101326.91
2022-10-05T02:48:23.035Z,101323.47
2022-10-05T02:53:34.749Z,101317.72
2022-10-05T02:58:49.130Z,101320.91
2022-10-05T03:04:14.448Z,101318.81
2022-10-05T03:09:19.916Z,101313.63
2022-10-05T03:14:54.238Z,101314.91
2022-10-05T03:20:02.038Z,101305.94
2022-10-05T03:25:30.655Z,101298.22
2022-10-05T03:31:01.123Z,101293.06
2022-10-05T03:36:17.334Z,101285.88
2022-10-05T03:41:31.410Z,101286.06
2022-10-05T03:47:28.083Z,101279.88
2022-10-05T03:52:38.882Z,101287.13
2022-10-05T03:57:43.518Z,101279.41
2022-10-05T04:03:02.965Z,101284.09
2022-10-05T04:08:52.301Z,101259.16
2022-10-05T04:14:06.766Z,101263.63
2022-10-05T04:19:19.047Z,101251.22
2022-10-05T04:24:27.441Z,101246.75
2022-10-05T04:29:53.497Z,101242.91
2022-10-05T04:35:08.193Z,101235.66
2022-10-05T04:40:12.654Z,101230.31
2022-10-05T04:45:52.135Z,101231.97
2022-10-05T04:50:57.580Z,101226.03
2022-10-05T04:56:34.934Z,101229.41
2022-10-05T05:02:00.018Z,101217.06
2022-10-05T05:07:21.782Z,101213.63
2022-10-05T05:12:32.131Z,101206.59
2022-10-05T05:18:03.203Z,101210.41
2022-10-05T05:23:26.675Z,101217.88
2022-10-05T05:28:46.824Z,101211.91
2022-10-05T05:34:02.525Z,101212.72
2022-10-05T05:39:14.573Z,101209.34
2022-10-05T05:44:21.842Z,101211.47
2022-10-05T05:49:38.672Z,101203.75
2022-10-05T05:54:51.562Z,101202.50
2022-10-05T05:59:56.386Z,101199.94
2022-10-05T06:05:22.201Z,101200.78
2022-10-05T06:10:47.210Z,101201.19
2022-10-05T06:15:58.799Z,101199.66
2022-10-05T06:21:08.591Z,101200.59
2022-10-05T06:26:32.159Z,101199.94
2022-10-05T06:31:59.070Z,101203.34
2022-10-05T06:37:09.102Z,101205.31
2022-10-05T06:42:16.936Z,101210.25
2022-10-05T06:48:01.622Z,101200.44
2022-10-05T06:53:48.437Z,101207.66
2022-10-05T06:58:59.782Z,101210.06
2022-10-05T07:04:16.665Z,101202.41
2022-10-05T07:09:30.924Z,101206.22
2022-10-05T07:14:46.216Z,101201.75
2022-10-05T07:20:29.173Z,101200.28
2022-10-05T07:25:50.256Z,101191.31
2022-10-05T07:31:13.901Z,101189.00
2022-10-05T07:37:24.257Z,101192.00
2022-10-05T07:42:48.941Z,101181.38
2022-10-05T07:47:58.681Z,101181.19
2022-10-05T07:53:06.473Z,101183.75
2022-10-05T07:58:14.406Z,101173.56
2022-10-05T08:03:32.929Z,101175.94
2022-10-05T08:08:45.140Z,101178.28
2022-10-05T08:13:58.434Z,101167.81
2022-10-05T08:19:08.564Z,101172.75
2022-10-05T08:24:39.009Z,101169.34
2022-10-05T08:29:49.372Z,101161.50
2022-10-05T08:34:57.802Z,101152.34
2022-10-05T08:40:26.681Z,101155.97
2022-10-05T08:45:49.662Z,101149.81
2022-10-05T08:51:12.977Z,101140.03
2022-10-05T08:56:19.743Z,101141.53
2022-10-05T09:01:50.804Z,101140.69
2022-10-05T09:07:09.928Z,101134.88
2022-10-05T09:12:49.360Z,101141.53
2022-10-05T09:18:30.726Z,101142.84
2022-10-05T09:23:42.949Z,101130.66
2022-10-05T09:29:14.377Z,101133.00
2022-10-05T09:34:39.743Z,101133.03
2022-10-05T09:39:44.114Z,101124.06
2022-10-05T09:45:23.595Z,101115.56
2022-10-05T09:50:40.995Z,101112.78
2022-10-05T09:55:53.535Z,101126.88
2022-10-05T10:01:36.428Z,101123.22
2022-10-05T10:07:13.310Z,101124.94
2022-10-05T10:12:24.455Z,101116.22
2022-10-05T10:17:50.891Z,101112.97
2022-10-05T10:23:16.156Z,101114.25
2022-10-05T10:28:35.601Z,101125.34
2022-10-05T10:33:45.359Z,101116.84
2022-10-05T10:38:58.591Z,101118.13
2022-10-05T10:44:22.227Z,101113.44
2022-10-05T10:50:07.318Z,101129.44
2022-10-05T10:55:46.565Z,101116.19
2022-10-05T11:01:06.761Z,101133.69
2022-10-05T11:06:18.350Z,101139.44
2022-10-05T11:11:27.039Z,101129.19
2022-10-05T11:16:46.651Z,101128.97
2022-10-05T11:22:12.859Z,101124.53
2022-10-05T11:27:30.734Z,101115.13
2022-10-05T11:32:38.420Z,101104.88
2022-10-05T11:37:54.932Z,101092.94
2022-10-05T11:43:13.633Z,101069.91
2022-10-05T11:48:26.627Z,101073.34
2022-10-05T11:53:38.922Z,101076.78
2022-10-05T11:58:51.725Z,101056.50
2022-10-05T12:04:34.086Z,101050.75
2022-10-05T12:10:17.149Z,101050.31
2022-10-05T12:15:29.041Z,101036.66
2022-10-05T12:20:41.019Z,101036.03
2022-10-05T12:26:32.224Z,101026.44
2022-10-05T12:31:44.438Z,101035.41
2022-10-05T12:37:11.323Z,101032.59
2022-10-05T12:42:19.960Z,101015.97
2022-10-05T12:47:35.597Z,101026.00
2022-10-05T12:52:46.419Z,101018.28
2022-10-05T12:57:56.234Z,101016.56
2022-10-05T13:03:03.678Z,101012.25
2022-10-05T13:08:18.015Z,101024.50
2022-10-05T13:13:35.452Z,100993.06
2022-10-05T13:19:01.129Z,100995.31
2022-10-05T13:24:35.467Z,101002.38
2022-10-05T13:30:03.796Z,101006.22
2022-10-05T13:35:29.890Z,100981.84
2022-10-05T13:40:47.809Z,100996.84
2022-10-05T13:45:57.037Z,101004.13
2022-10-05T13:51:08.742Z,100983.00
2022-10-05T13:56:22.056Z,100983.81
2022-10-05T14:01:35.738Z,100983.88
2022-10-05T14:06:38.807Z,100976.59
2022-10-05T14:11:53.685Z,100988.19
2022-10-05T14:16:58.604Z,100982.38
2022-10-05T14:22:22.305Z,100988.56
2022-10-05T14:27:27.836Z,100996.78
2022-10-05T14:32:44.197Z,100997.88
2022-10-05T14:37:58.250Z,100988.69
2022-10-05T14:43:17.489Z,100997.50
2022-10-05T14:48:19.141Z,100990.41
2022-10-05T14:53:36.444Z,101001.16
2022-10-05T14:58:44.862Z,101002.41
2022-10-05T15:04:00.034Z,101001.38
2022-10-05T15:09:26.167Z,101005.88
2022-10-05T15:14:36.496Z,101000.13
2022-10-05T15:19:53.372Z,101011.44
2022-10-05T15:25:14.063Z,101022.78
2022-10-05T15:30:18.385Z,101019.13
2022-10-05T15:35:38.738Z,101037.31
2022-10-05T15:40:54.751Z,101023.41
2022-10-05T15:46:34.555Z,101021.53
2022-10-05T15:51:54.539Z,101016.81
2022-10-05T15:57:10.932Z,101022.78
2022-10-05T16:02:22.643Z,101008.50
2022-10-05T16:07:50.426Z,101016.59
2022-10-05T16:12:58.756Z,101017.69
2022-10-05T16:18:29.031Z,101024.28
2022-10-05T16:23:33.536Z,101039.25
2022-10-05T16:28:54.115Z,101024.72
2022-10-05T16:34:09.649Z,101027.94
2022-10-05T16:39:40.809Z,101029.00
2022-10-05T16:45:06.853Z,101046.72
2022-10-05T16:50:20.914Z,101035.41
2022-10-05T16:55:31.706Z,101022.16
2022-10-05T17:01:00.423Z,101043.75
2022-10-05T17:06:10.909Z,101043.09
2022-10-05T17:11:42.576Z,101045.03
2022-10-05T17:17:04.450Z,101046.94
2022-10-05T17:22:09.555Z,101056.78
2022-10-05T17:27:22.695Z,101047.34
2022-10-05T17:32:56.381Z,101061.25
2022-10-05T17:38:20.193Z,101074.28
2022-10-05T17:43:32.540Z,101075.78
2022-10-05T17:48:49.372Z,101099.31
2022-10-05T17:54:09.622Z,101112.34
2022-10-05T17:59:12.279Z,101113.16
2022-10-05T18:04:27.012Z,101130.16
2022-10-05T18:09:33.140Z,101138.28
2022-10-05T18:15:06.761Z,101167.84
2022-10-05T18:20:31.477Z,101155.69
2022-10-05T18:25:51.679Z,101217.94
2022-10-05T18:31:04.343Z,101236.06
2022-10-05T18:36:27.499Z,101237.81
2022-10-05T18:41:57.845Z,101250.56
2022-10-05T18:47:05.477Z,101249.09
2022-10-05T18:52:36.645Z,101262.75
2022-10-05T18:58:04.365Z,101271.09
2022-10-05T19:03:19.133Z,101296.03
2022-10-05T19:08:43.039Z,101310.34
2022-10-05T19:13:58.862Z,101326.97
2022-10-05T19:19:33.171Z,101344.72
2022-10-05T19:25:14.515Z,101357.31
2022-10-05T19:30:23.072Z,101371.31
2022-10-05T19:35:59.222Z,101379.19
2022-10-05T19:41:14.445Z,101394.34
2022-10-05T19:46:38.020Z,101406.59
2022-10-05T19:51:50.618Z,101424.84
2022-10-05T19:56:54.978Z,101432.19
2022-10-05T20:01:57.915Z,101447.56
2022-10-05T20:07:02.309Z,101458.66
2022-10-05T20:12:04.125Z,101458.28
2022-10-05T20:17:45.164Z,101465.34
2022-10-05T20:22:47.013Z,101480.81
2022-10-05T20:27:56.577Z,101490.69
2022-10-05T20:33:00.599Z,101499.75
2022-10-05T20:38:05.381Z,101496.78
2022-10-05T20:43:08.518Z,101503.19
2022-10-05T20:48:11.408Z,101514.19
2022-10-05T20:53:13.237Z,101517.63
2022-10-05T20:58:15.785Z,101526.16
2022-10-05T21:03:18.650Z,101520.97
2022-10-05T21:08:20.348Z,101539.78
2022-10-05T21:13:22.028Z,101551.53
2022-10-05T21:18:23.674Z,101546.56
2022-10-05T21:23:25.343Z,101557.56
2022-10-05T21:28:28.487Z,101567.31
2022-10-05T21:33:30.669Z,101574.94
2022-10-05T21:38:32.613Z,101576.66
2022-10-05T21:43:34.820Z,101585.34
2022-10-05T21:48:38.916Z,101610.00
2022-10-05T21:53:48.410Z,101621.28
2022-10-05T21:58:51.478Z,101628.16
2022-10-05T22:03:53.178Z,101652.78
2022-10-05T22:08:55.068Z,101660.59
2022-10-05T22:14:02.645Z,101662.84
2022-10-05T22:19:06.591Z,101687.09
2022-10-05T22:24:09.590Z,101680.00
2022-10-05T22:29:11.582Z,101692.06
2022-10-05T22:34:13.776Z,101706.41
2022-10-05T22:39:16.269Z,101697.69
2022-10-05T22:44:17.871Z,101731.28
2022-10-05T22:49:19.920Z,101738.06
2022-10-05T22:54:23.573Z,101739.47
2022-10-05T22:59:28.086Z,101749.72
2022-10-05T23:04:30.090Z,101752.47
2022-10-05T23:09:31.697Z,101764.13
2022-10-05T23:14:33.327Z,101770.75
2022-10-05T23:19:35.087Z,101779.28
2022-10-05T23:24:36.846Z,101787.22
2022-10-05T23:29:38.446Z,101801.94
2022-10-05T23:34:40.067Z,101808.09
2022-10-05T23:39:42.920Z,101825.63
2022-10-05T23:44:44.478Z,101836.06
2022-10-05T23:49:46.111Z,101847.31
2022-10-05T23:54:47.791Z,101858.38
2022-10-05T23:59:52.124Z,101864.59
